Time;durP1;ratioP1;P1;durP2;ratioP2;P2;SDS_P1;SDS_P2;PMS_P1;PMS_P2;Temp;Humidity;BMP_temperature;BMP_pressure;BME280_temperature;BME280_humidity;BME280_pressure;Samples;Min_cycle;Max_cycle;Signal;HPM_P1;HPM_P2
2022/02/17 00:02:21;;;;;;;42.47;7.28;;;;;;;10.51;100.00;99281.97;5080717;28;20027;-78
2022/02/17 00:04:46;;;;;;;40.47;6.03;;;;;;;10.52;100.00;99278.47;5107625;28;20035;-77
2022/02/17 00:07:12;;;;;;;42.55;5.97;;;;;;;10.46;100.00;99282.03;5083460;28;20456;-77
2022/02/17 00:09:37;;;;;;;48.90;6.85;;;;;;;10.41;100.00;99308.34;5087919;28;20024;-76
2022/02/17 00:12:03;;;;;;;31.77;5.55;;;;;;;10.43;100.00;99297.81;5102716;28;20118;-76
2022/02/17 00:14:28;;;;;;;42.13;5.95;;;;;;;10.47;100.00;99289.00;5093575;28;20107;-76
2022/02/17 00:16:54;;;;;;;33.38;5.75;;;;;;;10.35;100.00;99316.28;5104293;28;20440;-78
2022/02/17 00:19:20;;;;;;;49.15;7.22;;;;;;;10.06;100.00;99376.88;5075651;28;20035;-77
2022/02/17 00:21:47;;;;;;;47.22;7.43;;;;;;;9.87;100.00;99369.06;5107829;28;20036;-77
2022/02/17 00:24:14;;;;;;;42.85;6.80;;;;;;;9.72;100.00;99354.25;5084985;28;20031;-78
2022/02/17 00:26:40;;;;;;;42.88;5.55;;;;;;;9.68;100.00;99372.66;5077626;28;20024;-78
2022/02/17 00:29:05;;;;;;;33.90;5.28;;;;;;;9.56;100.00;99323.69;5102202;28;20031;-78
2022/02/17 00:31:30;;;;;;;22.85;3.30;;;;;;;9.43;100.00;99364.88;5079106;28;20535;-77
2022/02/17 00:33:56;;;;;;;22.40;4.20;;;;;;;9.39;100.00;99334.25;5097706;28;20027;-77
2022/02/17 00:36:21;;;;;;;30.73;4.18;;;;;;;9.38;100.00;99337.75;5105650;28;20073;-78
2022/02/17 00:38:46;;;;;;;16.75;3.17;;;;;;;9.34;100.00;99342.13;5114667;28;20027;-77
2022/02/17 00:41:12;;;;;;;15.18;3.22;;;;;;;9.33;100.00;99352.63;5101774;28;20028;-77
2022/02/17 00:43:37;;;;;;;19.10;3.33;;;;;;;9.30;100.00;99337.75;5085493;28;20035;-77
2022/02/17 00:46:03;;;;;;;25.63;3.20;;;;;;;9.24;100.00;99332.56;5108632;28;20051;-78
2022/02/17 00:48:29;;;;;;;12.25;2.08;;;;;;;9.30;100.00;99373.66;5080309;28;20036;-77
2022/02/17 00:50:55;;;;;;;17.83;2.83;;;;;;;9.35;100.00;99343.88;5108574;28;20027;-77
2022/02/17 00:53:20;;;;;;;19.30;2.80;;;;;;;9.29;100.00;99343.88;5110070;28;20074;-78
2022/02/17 00:55:45;;;;;;;16.60;2.85;;;;;;;9.29;100.00;99357.00;5092993;28;20063;-78
2022/02/17 00:58:11;;;;;;;19.52;3.00;;;;;;;9.25;100.00;99360.53;5067921;28;20024;-77
2022/02/17 01:00:36;;;;;;;21.10;2.72;;;;;;;9.34;100.00;99373.63;5084071;28;20111;-77
2022/02/17 01:03:02;;;;;;;20.90;4.38;;;;;;;9.35;100.00;99383.25;5063571;28;20024;-78
2022/02/17 01:05:28;;;;;;;24.30;3.70;;;;;;;9.34;100.00;99389.38;5060797;28;20121;-78
2022/02/17 01:07:54;;;;;;;23.48;4.13;;;;;;;9.42;100.00;99390.25;5080279;28;20024;-76
2022/02/17 01:10:20;;;;;;;23.27;4.25;;;;;;;9.49;100.00;99388.47;5065021;28;20035;-78
2022/02/17 01:12:45;;;;;;;26.13;3.55;;;;;;;9.53;100.00;99382.34;5067490;28;20025;-77
2022/02/17 01:15:10;;;;;;;31.45;3.95;;;;;;;9.51;100.00;99393.72;5085263;28;20032;-79
2022/02/17 01:17:36;;;;;;;24.88;4.43;;;;;;;9.56;100.00;99397.22;5077603;28;20507;-78
2022/02/17 01:20:01;;;;;;;30.33;4.40;;;;;;;9.66;100.00;99401.56;5058921;28;20467;-77
2022/02/17 01:22:27;;;;;;;28.00;4.65;;;;;;;9.73;100.00;99415.56;5062378;28;20028;-77
2022/02/17 01:24:52;;;;;;;25.30;4.32;;;;;;;9.70;100.00;99415.53;5064132;28;20106;-77
2022/02/17 01:27:17;;;;;;;35.97;4.40;;;;;;;9.75;100.00;99425.19;5078515;28;20027;-78
2022/02/17 01:29:43;;;;;;;31.55;6.70;;;;;;;9.75;100.00;99427.81;5080307;28;20031;-77
2022/02/17 01:32:08;;;;;;;32.95;5.35;;;;;;;9.76;100.00;99442.66;5070473;28;20121;-78
2022/02/17 01:34:34;;;;;;;26.23;4.40;;;;;;;9.77;100.00;99423.41;5078899;28;20077;-78
2022/02/17 01:37:00;;;;;;;32.53;4.55;;;;;;;9.79;100.00;99434.81;5060375;28;20063;-78
2022/02/17 01:39:25;;;;;;;31.10;4.35;;;;;;;9.77;100.00;99439.19;5062739;28;20039;-77
2022/02/17 01:41:50;;;;;;;23.58;4.43;;;;;;;9.81;100.00;99444.41;5062726;28;20047;-78
2022/02/17 01:44:16;;;;;;;23.73;3.45;;;;;;;9.86;100.00;99437.41;5083398;28;20439;-79
2022/02/17 01:46:42;;;;;;;29.48;4.93;;;;;;;9.84;100.00;99439.16;5083912;28;20044;-76
2022/02/17 01:49:10;;;;;;;22.85;3.80;;;;;;;9.81;100.00;99454.91;5066020;28;20043;-76
2022/02/17 01:51:36;;;;;;;20.98;3.75;;;;;;;9.93;100.00;99444.41;5070031;28;20052;-76
2022/02/17 01:54:04;;;;;;;32.72;5.13;;;;;;;9.89;100.00;99445.25;5080952;28;20129;-77
2022/02/17 01:56:31;;;;;;;17.40;3.05;;;;;;;9.94;96.93;99440.88;5093856;28;20048;-76
2022/02/17 01:58:59;;;;;;;23.70;3.58;;;;;;;9.87;95.88;99457.53;5084024;28;20035;-76
2022/02/17 02:01:25;;;;;;;21.75;3.60;;;;;;;9.94;93.11;99438.25;5099056;28;20032;-75
2022/02/17 02:03:50;;;;;;;22.98;3.45;;;;;;;9.96;92.01;99449.63;5098469;28;20715;-76
2022/02/17 02:06:16;;;;;;;22.77;3.88;;;;;;;9.91;92.16;99462.78;5099129;28;20130;-76
2022/02/17 02:08:43;;;;;;;22.05;3.33;;;;;;;9.83;93.05;99477.69;5102910;28;20044;-77
2022/02/17 02:11:09;;;;;;;28.83;3.97;;;;;;;9.71;93.86;99503.97;5083800;28;20055;-77
2022/02/17 02:13:36;;;;;;;26.20;4.38;;;;;;;9.66;95.45;99509.25;5096095;28;20441;-76
2022/02/17 02:16:01;;;;;;;28.83;4.82;;;;;;;9.59;98.44;99507.50;5096426;28;20062;-76
2022/02/17 02:18:27;;;;;;;29.08;4.28;;;;;;;9.55;100.00;99514.53;5102106;28;20071;-76
2022/02/17 02:20:55;;;;;;;30.38;5.25;;;;;;;9.54;100.00;99536.41;5100533;28;20498;-76
2022/02/17 02:23:20;;;;;;;21.15;3.78;;;;;;;9.60;98.82;99515.41;5109091;28;20065;-76
2022/02/17 02:25:48;;;;;;;25.05;4.63;;;;;;;9.56;99.37;99533.75;5077922;28;20028;-77
2022/02/17 02:28:23;;;;;;;21.67;3.35;;;;;;;9.58;96.80;99532.03;5095109;28;20527;-76
2022/02/17 02:30:49;;;;;;;32.55;4.75;;;;;;;9.60;95.63;99539.03;5108346;28;20778;-77
2022/02/17 02:33:15;;;;;;;27.02;3.63;;;;;;;9.61;93.36;99526.75;5077399;28;20024;-77
2022/02/17 02:35:43;;;;;;;29.25;4.32;;;;;;;9.61;91.83;99558.28;5106832;28;20447;-78
2022/02/17 02:38:09;;;;;;;24.52;3.33;;;;;;;9.65;88.61;99575.78;5097805;28;20035;-78
2022/02/17 02:40:35;;;;;;;28.65;3.33;;;;;;;9.64;87.34;99581.91;5091717;28;20451;-78
2022/02/17 02:43:01;;;;;;;27.15;3.85;;;;;;;9.57;86.60;99595.94;5098411;28;20055;-77
2022/02/17 02:45:26;;;;;;;27.35;4.03;;;;;;;9.57;85.56;99598.56;5095037;28;20442;-77
2022/02/17 02:47:52;;;;;;;21.27;3.58;;;;;;;9.59;85.50;99609.91;5102947;28;20135;-77
2022/02/17 02:50:18;;;;;;;19.27;3.70;;;;;;;9.58;83.64;99602.94;5099261;28;20090;-77
2022/02/17 02:52:43;;;;;;;21.10;4.32;;;;;;;9.55;82.96;99619.56;5101268;28;20031;-78
2022/02/17 02:55:08;;;;;;;27.80;3.65;;;;;;;9.53;83.69;99623.91;5103120;28;20031;-77
2022/02/17 02:57:34;;;;;;;29.23;4.43;;;;;;;9.50;83.64;99637.06;5083575;28;20763;-76
2022/02/17 02:59:59;;;;;;;20.17;3.50;;;;;;;9.50;82.96;99633.56;5099294;28;20032;-75
2022/02/17 03:02:24;;;;;;;29.45;4.32;;;;;;;9.54;83.14;99635.31;5086354;28;20024;-77
2022/02/17 03:04:50;;;;;;;21.40;4.00;;;;;;;9.50;82.67;99639.69;5103839;28;20032;-76
2022/02/17 03:07:15;;;;;;;27.30;3.58;;;;;;;9.51;83.02;99672.06;5098226;28;20020;-77
2022/02/17 03:09:40;;;;;;;24.52;4.40;;;;;;;9.54;82.24;99643.19;5094166;28;20487;-76
2022/02/17 03:12:06;;;;;;;18.05;3.30;;;;;;;9.52;83.16;99647.56;5105564;28;20063;-76
2022/02/17 03:14:31;;;;;;;19.92;3.55;;;;;;;9.49;83.70;99658.06;5087166;28;20032;-76
2022/02/17 03:16:57;;;;;;;23.42;3.20;;;;;;;9.45;84.73;99671.19;5105042;28;20024;-76
2022/02/17 03:19:22;;;;;;;34.00;4.78;;;;;;;9.51;84.83;99679.94;5088685;28;20459;-77
2022/02/17 03:21:47;;;;;;;28.42;3.45;;;;;;;9.42;85.92;99679.03;5108344;28;20062;-76
2022/02/17 03:24:13;;;;;;;22.17;3.88;;;;;;;9.41;86.21;99677.31;5093792;28;20019;-76
2022/02/17 03:26:39;;;;;;;31.98;3.72;;;;;;;9.38;86.41;99677.28;5075931;28;20031;-75
2022/02/17 03:29:04;;;;;;;23.83;4.18;;;;;;;9.35;87.29;99719.28;5083628;28;20028;-75
2022/02/17 03:31:30;;;;;;;35.55;5.18;;;;;;;9.29;87.96;99693.00;5082595;28;20440;-75
2022/02/17 03:33:56;;;;;;;32.10;4.63;;;;;;;9.30;88.01;99704.41;5079829;28;20471;-77
2022/02/17 03:36:21;;;;;;;29.75;3.85;;;;;;;9.27;88.42;99689.50;5090541;28;20038;-75
2022/02/17 03:38:47;;;;;;;33.28;4.97;;;;;;;9.34;87.27;99717.53;5102641;28;21238;-76
2022/02/17 03:41:12;;;;;;;24.13;5.30;;;;;;;9.29;88.01;99711.38;5104969;28;20380;-77
2022/02/17 03:43:37;;;;;;;16.05;3.10;;;;;;;9.21;89.04;99723.59;5104186;28;20051;-76
2022/02/17 03:46:03;;;;;;;21.35;4.20;;;;;;;9.26;89.63;99725.41;5109434;28;20032;-77
2022/02/17 03:48:28;;;;;;;26.15;4.40;;;;;;;9.21;90.50;99728.84;5091754;28;20032;-77
2022/02/17 03:50:53;;;;;;;36.08;4.95;;;;;;;9.20;91.15;99740.25;5108907;28;20364;-75
2022/02/17 03:53:19;;;;;;;27.85;4.22;;;;;;;9.20;91.44;99761.25;5097461;28;20111;-76
2022/02/17 03:55:44;;;;;;;28.58;4.50;;;;;;;9.18;92.01;99783.97;5109173;28;20113;-75
2022/02/17 03:59:00;;;;;;;30.35;4.80;;;;;;;9.12;92.67;99766.44;5086583;28;20030;-75
2022/02/17 04:00:55;;;;;;;34.13;4.18;;;;;;;9.06;93.11;99769.94;5107538;28;20399;-76
2022/02/17 04:03:20;;;;;;;32.22;4.70;;;;;;;9.04;93.30;99765.53;5081373;28;20020;-76
2022/02/17 04:05:45;;;;;;;31.38;5.07;;;;;;;9.00;93.87;99777.75;5085788;28;20085;-76
2022/02/17 04:08:11;;;;;;;32.00;4.93;;;;;;;8.94;94.48;99777.72;5079708;28;20518;-76
2022/02/17 04:10:36;;;;;;;45.25;5.13;;;;;;;8.96;93.70;99786.47;5102538;28;20103;-77
2022/02/17 04:13:01;;;;;;;29.92;5.43;;;;;;;8.98;93.18;99792.63;5105186;28;20056;-76
2022/02/17 04:15:27;;;;;;;29.20;5.13;;;;;;;9.00;91.78;99806.63;5108850;28;20107;-76
2022/02/17 04:17:52;;;;;;;28.73;4.03;;;;;;;9.03;91.63;99811.88;5112083;28;20065;-76
2022/02/17 04:20:17;;;;;;;27.80;4.05;;;;;;;9.06;91.01;99813.63;5098276;28;20031;-76
2022/02/17 04:22:43;;;;;;;28.00;6.43;;;;;;;9.09;89.73;99817.16;5084780;28;20102;-75
2022/02/17 04:25:08;;;;;;;31.80;4.53;;;;;;;9.14;88.97;99842.56;5099516;28;20024;-75
2022/02/17 04:27:33;;;;;;;25.98;4.93;;;;;;;9.12;88.87;99847.81;5107683;28;20398;-75
2022/02/17 04:29:58;;;;;;;19.50;3.80;;;;;;;9.11;88.31;99846.94;5105822;28;20074;-76
2022/02/17 04:32:24;;;;;;;26.02;4.65;;;;;;;9.18;87.31;99846.97;5100735;28;20465;-75
2022/02/17 04:34:49;;;;;;;27.52;5.63;;;;;;;9.15;88.14;99844.31;5107111;28;20036;-75
2022/02/17 04:37:15;;;;;;;28.77;4.65;;;;;;;9.07;90.07;99865.25;5089552;28;20042;-75
2022/02/17 04:39:40;;;;;;;33.35;4.40;;;;;;;9.04;90.96;99866.13;5095779;28;20027;-75
2022/02/17 04:42:18;;;;;;;38.05;5.38;;;;;;;8.99;92.49;99854.69;5089952;28;20382;-76
2022/02/17 04:44:45;;;;;;;36.90;5.20;;;;;;;8.97;94.49;99893.19;5104772;28;20036;-76
2022/02/17 04:47:13;;;;;;;37.50;6.38;;;;;;;8.91;95.77;99880.00;5105454;28;20027;-77
2022/02/17 04:49:38;;;;;;;43.40;6.15;;;;;;;8.97;95.89;99893.19;5106618;28;20019;-77
2022/02/17 04:52:05;;;;;;;37.92;7.47;;;;;;;9.01;96.07;99888.84;5078902;28;20035;-75
2022/02/17 04:54:31;;;;;;;42.10;6.40;;;;;;;9.03;96.04;99889.72;5103403;28;20032;-76
2022/02/17 04:56:56;;;;;;;35.92;6.10;;;;;;;9.04;95.09;99904.63;5105126;28;20040;-75
2022/02/17 04:59:21;;;;;;;42.15;5.72;;;;;;;9.07;94.28;99900.25;5113403;28;20047;-76
2022/02/17 05:01:47;;;;;;;55.47;6.18;;;;;;;9.10;93.52;99921.28;5103386;28;20064;-76
2022/02/17 05:04:12;;;;;;;34.22;4.18;;;;;;;9.11;92.32;99915.19;5106308;28;20024;-76
2022/02/17 05:06:37;;;;;;;29.63;4.80;;;;;;;9.18;88.91;99895.06;5110635;28;20038;-76
2022/02/17 05:09:03;;;;;;;26.65;4.70;;;;;;;9.23;89.20;99924.00;5104824;28;20036;-75
2022/02/17 05:11:28;;;;;;;34.25;5.00;;;;;;;9.27;85.97;99954.66;5086190;28;20031;-74
2022/02/17 05:13:54;;;;;;;20.92;4.55;;;;;;;9.35;82.27;99934.56;5086244;28;20419;-76
2022/02/17 05:16:19;;;;;;;22.85;3.83;;;;;;;9.38;82.65;99939.84;5101805;28;20036;-76
2022/02/17 05:18:45;;;;;;;29.00;4.22;;;;;;;9.33;83.42;99957.31;5089716;28;20115;-75
2022/02/17 05:21:10;;;;;;;26.80;3.58;;;;;;;9.33;84.26;99957.31;5101389;28;20102;-76
2022/02/17 05:23:36;;;;;;;28.08;4.43;;;;;;;9.27;84.34;99976.53;5078972;28;20024;-76
2022/02/17 05:26:01;;;;;;;32.40;4.78;;;;;;;9.26;84.54;99979.13;5104930;28;20019;-75
2022/02/17 05:28:26;;;;;;;33.28;4.07;;;;;;;9.20;83.70;99977.34;5102956;28;20472;-76
2022/02/17 05:30:51;;;;;;;20.95;3.20;;;;;;;9.18;82.93;99970.31;5088762;28;20019;-76
2022/02/17 05:33:17;;;;;;;12.63;2.45;;;;;;;9.22;80.77;99974.72;5102002;28;20114;-76
2022/02/17 05:35:43;;;;;;;24.83;3.90;;;;;;;9.19;81.19;99991.34;5109123;28;20039;-76
2022/02/17 05:38:09;;;;;;;25.90;3.58;;;;;;;9.17;81.92;100013.19;5103481;28;20043;-76
2022/02/17 05:40:35;;;;;;;19.85;4.63;;;;;;;9.12;83.10;100026.28;5085418;28;20023;-76
2022/02/17 05:43:00;;;;;;;19.73;3.50;;;;;;;9.06;85.14;100024.47;5105429;28;20376;-76
2022/02/17 05:45:27;;;;;;;36.40;5.45;;;;;;;8.96;88.14;100034.88;5083125;28;20028;-76
2022/02/17 05:47:53;;;;;;;29.77;4.35;;;;;;;8.90;89.49;100051.44;5101320;28;20024;-76
2022/02/17 05:50:20;;;;;;;20.55;4.53;;;;;;;8.86;90.15;100050.50;5080579;28;20028;-76
2022/02/17 05:52:46;;;;;;;30.98;4.80;;;;;;;8.81;90.26;100056.56;5084483;28;20051;-76
2022/02/17 05:55:12;;;;;;;35.83;4.72;;;;;;;8.73;90.22;100053.84;5098778;28;20046;-76
2022/02/17 05:57:37;;;;;;;26.88;4.65;;;;;;;8.72;90.04;100063.47;5103163;28;20028;-76
2022/02/17 06:00:03;;;;;;;37.70;4.85;;;;;;;8.73;89.00;100064.34;5093895;28;20496;-76
2022/02/17 06:02:28;;;;;;;24.60;4.28;;;;;;;8.72;87.80;100055.63;5108465;28;20120;-76
2022/02/17 06:04:54;;;;;;;20.27;4.70;;;;;;;8.71;87.72;100081.84;5081643;28;20027;-74
2022/02/17 06:07:20;;;;;;;27.80;5.00;;;;;;;8.70;86.51;100072.19;5086980;28;20077;-75
2022/02/17 06:09:45;;;;;;;22.38;4.60;;;;;;;8.68;87.07;100084.38;5099444;28;20024;-75
2022/02/17 06:12:11;;;;;;;17.95;3.60;;;;;;;8.74;86.67;100082.72;5084369;28;20026;-75
2022/02/17 06:14:37;;;;;;;27.05;3.47;;;;;;;8.75;87.78;100096.75;5106291;28;20438;-75
2022/02/17 06:17:03;;;;;;;22.48;3.33;;;;;;;8.72;87.98;100094.97;5101018;28;20028;-75
2022/02/17 06:19:29;;;;;;;25.48;4.28;;;;;;;8.66;88.58;100100.13;5097829;28;20036;-75
2022/02/17 06:21:54;;;;;;;28.13;4.45;;;;;;;8.67;87.81;100109.75;5081914;28;20036;-74
2022/02/17 06:24:20;;;;;;;19.90;3.42;;;;;;;8.68;87.40;100115.88;5103226;28;20044;-79
2022/02/17 06:26:46;;;;;;;28.20;3.92;;;;;;;8.70;87.09;100109.78;5083357;28;20026;-79
2022/02/17 06:29:11;;;;;;;24.50;3.75;;;;;;;8.64;87.36;100112.34;5109691;28;20023;-80
2022/02/17 06:31:36;;;;;;;23.92;3.80;;;;;;;8.59;87.42;100122.75;5100958;28;20028;-79
2022/02/17 06:34:02;;;;;;;14.55;2.92;;;;;;;8.60;87.29;100127.16;5095629;28;20080;-75
2022/02/17 06:36:27;;;;;;;21.20;3.53;;;;;;;8.63;86.77;100136.81;5078894;28;20028;-75
2022/02/17 06:38:53;;;;;;;16.17;3.28;;;;;;;8.63;86.43;100141.16;5110570;28;20126;-76
2022/02/17 06:41:20;;;;;;;17.30;3.47;;;;;;;8.62;85.64;100156.00;5078580;28;20023;-76
2022/02/17 06:43:46;;;;;;;14.63;3.33;;;;;;;8.60;85.17;100147.25;5103259;28;20088;-76
2022/02/17 06:46:12;;;;;;;17.33;3.10;;;;;;;8.57;84.56;100158.59;5099315;28;20531;-76
2022/02/17 06:48:44;;;;;;;23.38;4.13;;;;;;;8.54;84.19;100183.88;5105330;27;20129;-75
2022/02/17 06:51:12;;;;;;;24.20;3.38;;;;;;;8.45;84.66;100200.38;5086637;28;20085;-76
2022/02/17 06:53:38;;;;;;;15.38;2.60;;;;;;;8.46;83.45;100196.00;5090073;28;20048;-75
2022/02/17 06:56:03;;;;;;;22.83;3.47;;;;;;;8.46;84.17;100209.09;5064317;28;20064;-77
2022/02/17 06:58:31;;;;;;;15.43;3.10;;;;;;;8.39;84.92;100208.97;5083648;28;20021;-77
2022/02/17 07:00:56;;;;;;;19.65;3.03;;;;;;;8.36;84.86;100206.31;5065902;28;20040;-75
2022/02/17 07:03:22;;;;;;;14.40;2.72;;;;;;;8.36;84.28;100205.44;5082954;28;20040;-75
2022/02/17 07:05:47;;;;;;;14.63;3.15;;;;;;;8.41;83.54;100214.22;5079002;28;20112;-76
2022/02/17 07:08:13;;;;;;;11.32;2.40;;;;;;;8.39;83.19;100213.34;5078465;28;20029;-76
2022/02/17 07:10:57;;;;;;;22.30;3.92;;;;;;;8.38;82.04;100215.09;5085854;28;20050;-76
2022/02/17 07:13:24;;;;;;;16.25;2.92;;;;;;;8.37;81.24;100238.63;5068556;28;20032;-77
2022/02/17 07:15:51;;;;;;;9.25;2.65;;;;;;;8.32;81.21;100243.81;5057418;28;20096;-76
2022/02/17 07:18:19;;;;;;;12.27;2.03;;;;;;;8.29;81.23;100243.78;5054990;28;20020;-75
2022/02/17 07:20:46;;;;;;;17.85;2.67;;;;;;;8.25;81.07;100249.84;5084912;28;20059;-77
2022/02/17 07:23:12;;;;;;;20.73;3.35;;;;;;;8.24;81.00;100248.06;5063630;28;20094;-75
2022/02/17 07:25:38;;;;;;;17.92;2.55;;;;;;;8.22;81.73;100275.97;5082730;28;20086;-76
2022/02/17 07:28:03;;;;;;;18.42;3.90;;;;;;;8.19;83.20;100278.53;5064123;28;20036;-75
2022/02/17 07:30:29;;;;;;;26.83;3.22;;;;;;;8.18;84.03;100289.88;5084413;28;20031;-77
2022/02/17 07:32:55;;;;;;;21.98;2.53;;;;;;;8.18;84.14;100295.13;5071631;28;20029;-76
2022/02/17 07:35:20;;;;;;;19.58;3.92;;;;;;;8.18;83.75;100284.63;5089124;28;20020;-76
2022/02/17 07:37:45;;;;;;;20.80;2.63;;;;;;;8.16;83.57;100287.22;5085125;28;20028;-77
2022/02/17 07:40:11;;;;;;;18.52;2.40;;;;;;;8.20;82.71;100261.97;5060612;28;20384;-76
2022/02/17 07:42:38;;;;;;;19.85;3.17;;;;;;;8.17;82.96;100296.00;5059817;28;20028;-76
2022/02/17 07:45:05;;;;;;;15.98;2.70;;;;;;;8.22;81.83;100305.69;5071366;28;20024;-76
2022/02/17 07:47:30;;;;;;;18.45;2.85;;;;;;;8.21;81.85;100296.06;5069571;28;20036;-76
2022/02/17 07:49:56;;;;;;;15.40;1.85;;;;;;;8.23;80.04;100307.47;5080831;28;20419;-76
2022/02/17 07:52:26;;;;;;;11.80;2.20;;;;;;;8.24;80.68;100300.47;5081594;28;20092;-78
2022/02/17 07:54:51;;;;;;;29.13;2.95;;;;;;;8.28;79.94;100307.53;5082056;28;20032;-77
2022/02/17 07:57:17;;;;;;;14.75;2.50;;;;;;;8.32;79.83;100325.09;5073365;28;20032;-76
2022/02/17 07:59:43;;;;;;;19.02;2.75;;;;;;;8.31;81.26;100333.78;5060203;28;20031;-74
2022/02/17 08:02:08;;;;;;;12.55;2.95;;;;;;;8.28;82.03;100344.22;5063835;28;20032;-78
2022/02/17 08:04:36;;;;;;;19.08;2.67;;;;;;;8.24;81.89;100343.28;5066895;28;20040;-79
2022/02/17 08:07:03;;;;;;;12.57;2.70;;;;;;;8.28;81.80;100378.31;5065254;28;20127;-79
2022/02/17 08:09:29;;;;;;;14.52;2.25;;;;;;;8.28;81.45;100371.31;5052040;28;20055;-79
2022/02/17 08:11:54;;;;;;;19.73;2.30;;;;;;;8.26;79.97;100372.13;5071241;28;20060;-78
2022/02/17 08:14:19;;;;;;;13.50;3.03;;;;;;;8.28;77.52;100371.31;5052662;28;20074;-78
2022/02/17 08:16:45;;;;;;;9.93;1.88;;;;;;;8.31;76.93;100383.59;5056300;28;20028;-78
2022/02/17 08:19:10;;;;;;;6.60;2.13;;;;;;;8.30;77.19;100380.97;5044301;28;20029;-79
2022/02/17 08:21:36;;;;;;;18.75;3.30;;;;;;;8.31;77.77;100385.34;5057987;28;20097;-78
2022/02/17 08:24:01;;;;;;;15.05;2.50;;;;;;;8.32;77.43;100393.25;5064486;28;20408;-79
2022/02/17 08:26:27;;;;;;;20.73;3.20;;;;;;;8.33;76.24;100395.00;5052094;28;20116;-79
2022/02/17 08:28:57;;;;;;;14.38;3.20;;;;;;;8.36;76.70;100395.06;5067096;28;20029;-77
2022/02/17 08:31:23;;;;;;;10.90;2.00;;;;;;;8.34;76.29;100402.03;5058924;28;20062;-78
2022/02/17 08:33:49;;;;;;;16.80;2.50;;;;;;;8.38;75.08;100406.47;5074439;28;20106;-79
2022/02/17 08:36:14;;;;;;;17.08;2.70;;;;;;;8.40;75.53;100420.47;5056978;28;20100;-79
2022/02/17 08:38:39;;;;;;;13.05;1.77;;;;;;;8.41;75.39;100414.38;5077187;28;20020;-81
2022/02/17 08:41:06;;;;;;;12.25;2.22;;;;;;;8.47;75.57;100433.75;5068596;28;20024;-78
2022/02/17 08:43:32;;;;;;;11.38;2.30;;;;;;;8.49;75.46;100424.16;5063695;28;20020;-79
2022/02/17 08:45:58;;;;;;;16.98;2.38;;;;;;;8.51;76.01;100432.94;5049382;28;20032;-79
2022/02/17 08:48:23;;;;;;;17.13;2.65;;;;;;;8.57;75.89;100452.31;5064738;28;20048;-79
2022/02/17 08:50:48;;;;;;;12.63;2.28;;;;;;;8.56;77.44;100433.88;5071288;28;20083;-80
2022/02/17 08:53:14;;;;;;;23.83;2.88;;;;;;;8.58;78.39;100442.69;5041408;28;20028;-80
2022/02/17 08:55:39;;;;;;;22.45;2.72;;;;;;;8.63;79.66;100450.63;5067827;28;20028;-80
2022/02/17 08:58:05;;;;;;;13.50;2.83;;;;;;;8.69;78.75;100475.22;5062572;28;20028;-79
2022/02/17 09:00:31;;;;;;;17.55;2.67;;;;;;;8.71;78.83;100457.78;5057169;28;20499;-80
2022/02/17 09:02:56;;;;;;;12.57;2.70;;;;;;;8.72;78.90;100469.16;5067031;28;20100;-79
2022/02/17 09:05:22;;;;;;;11.88;2.20;;;;;;;8.78;78.62;100469.28;5058643;28;20181;-82
2022/02/17 09:07:47;;;;;;;15.50;2.92;;;;;;;8.86;79.55;100461.56;5057572;28;20028;-81
2022/02/17 09:10:12;;;;;;;12.25;1.92;;;;;;;8.89;78.96;100485.22;5070363;28;20429;-79
2022/02/17 09:12:38;;;;;;;12.98;2.15;;;;;;;8.87;79.61;100503.56;5059136;28;20544;-79
2022/02/17 09:15:05;;;;;;;14.05;2.42;;;;;;;8.87;80.00;100487.81;5046417;28;20166;-79
2022/02/17 09:17:30;;;;;;;11.30;3.05;;;;;;;8.95;80.88;100529.91;5045260;28;20361;-80
2022/02/17 09:19:56;;;;;;;11.98;2.05;;;;;;;8.99;79.87;100508.13;5058458;28;20043;-80
2022/02/17 09:22:21;;;;;;;27.73;3.08;;;;;;;9.05;79.51;100518.72;5056123;28;20029;-77
2022/02/17 09:24:47;;;;;;;12.75;2.40;;;;;;;9.28;76.71;100518.25;5059193;28;20067;-79
2022/02/17 09:27:13;;;;;;;20.10;2.97;;;;;;;9.61;76.66;100519.63;5055553;28;20102;-80
2022/02/17 09:29:40;;;;;;;18.08;2.85;;;;;;;9.87;72.57;100512.13;5065045;28;20079;-79
2022/02/17 09:32:06;;;;;;;18.75;2.40;;;;;;;10.06;72.19;100507.13;5055035;28;20084;-79
2022/02/17 09:34:32;;;;;;;16.95;3.88;;;;;;;10.12;71.30;100530.88;5068691;28;20384;-79
2022/02/17 09:36:57;;;;;;;13.35;1.70;;;;;;;10.20;70.17;100520.44;5053972;28;20533;-78
2022/02/17 09:39:25;;;;;;;14.52;2.33;;;;;;;10.29;69.21;100525.81;5048683;28;20473;-79
2022/02/17 09:41:50;;;;;;;12.13;2.13;;;;;;;10.27;68.15;100514.41;5050362;28;20028;-81
2022/02/17 09:44:19;;;;;;;14.93;2.67;;;;;;;10.08;68.50;100535.19;5058825;28;20116;-79
2022/02/17 09:46:47;;;;;;;14.52;2.38;;;;;;;10.11;70.00;100534.38;5043064;28;20049;-80
2022/02/17 09:49:17;;;;;;;17.58;2.28;;;;;;;10.16;69.19;100543.22;5048471;28;20036;-81
2022/02/17 09:51:43;;;;;;;13.20;2.03;;;;;;;10.15;69.32;100541.44;5049604;28;20024;-80
2022/02/17 09:54:09;;;;;;;13.93;2.40;;;;;;;10.16;69.51;100540.56;5061665;28;20135;-80
2022/02/17 09:56:38;;;;;;;10.30;2.13;;;;;;;10.19;69.01;100540.59;5046060;28;20116;-79
2022/02/17 09:59:05;;;;;;;14.73;2.05;;;;;;;10.22;68.58;100561.69;5066014;28;20063;-77
2022/02/17 10:01:31;;;;;;;14.07;2.08;;;;;;;10.22;68.82;100560.81;5057639;28;20055;-81
2022/02/17 10:04:15;;;;;;;13.73;2.00;;;;;;;10.11;69.55;100572.03;5069006;28;20116;-82
2022/02/17 10:06:46;;;;;;;10.38;1.85;;;;;;;10.12;70.29;100576.44;5071953;28;20036;-77
2022/02/17 10:09:12;;;;;;;15.43;2.90;;;;;;;10.09;70.81;100576.41;5067017;28;20032;-81
2022/02/17 10:11:39;;;;;;;18.55;2.88;;;;;;;10.21;71.51;100595.84;5052666;28;20034;-81
2022/02/17 10:14:14;;;;;;;14.15;2.97;;;;;;;10.13;70.82;100599.25;5041615;28;20473;-79
2022/02/17 10:17:06;;;;;;;11.90;2.78;;;;;;;10.21;71.04;100612.50;5057633;28;20060;-79
2022/02/17 10:19:40;;;;;;;10.82;2.17;;;;;;;10.26;70.37;100615.19;5074615;28;20033;-79
2022/02/17 10:22:08;;;;;;;15.43;2.83;;;;;;;10.22;70.89;100603.75;5056553;28;20024;-80
2022/02/17 10:24:44;;;;;;;17.65;2.15;;;;;;;10.27;71.23;100611.72;5052836;28;20033;-82
2022/02/17 10:27:16;;;;;;;22.25;3.65;;;;;;;10.39;71.27;100618.91;5076377;28;20021;-79
2022/02/17 10:30:07;;;;;;;16.95;2.50;;;;;;;10.68;71.76;100626.31;5062679;28;20031;-79
2022/02/17 10:32:34;;;;;;;15.25;2.85;;;;;;;10.74;70.72;100622.03;5050011;28;20024;-79
2022/02/17 10:35:12;;;;;;;12.30;2.30;;;;;;;10.73;69.30;100624.59;5059972;28;20033;-78
2022/02/17 10:37:50;;;;;;;20.85;3.20;;;;;;;10.72;69.25;100629.00;5066688;28;20096;-79
2022/02/17 10:40:26;;;;;;;19.23;3.00;;;;;;;10.93;69.38;100640.66;5046352;28;20025;-80
2022/02/17 10:43:12;;;;;;;10.85;2.22;;;;;;;10.93;69.18;100636.28;5061175;28;20102;-79
2022/02/17 10:45:39;;;;;;;16.95;2.70;;;;;;;10.89;69.46;100660.81;5062013;28;20048;-79
2022/02/17 10:48:19;;;;;;;9.35;2.45;;;;;;;11.22;68.90;100642.75;5065088;28;20170;-78
2022/02/17 10:51:05;;;;;;;17.10;2.65;;;;;;;11.17;69.39;100649.72;5057190;28;20431;-78
2022/02/17 10:53:35;;;;;;;12.90;2.13;;;;;;;11.21;68.70;100655.00;5039224;28;20020;-79
2022/02/17 10:56:04;;;;;;;14.68;3.03;;;;;;;11.31;69.10;100653.34;5047853;28;20063;-80
2022/02/17 10:58:31;;;;;;;19.02;2.17;;;;;;;11.35;68.29;100660.41;5040848;28;20017;-81
2022/02/17 11:00:59;;;;;;;17.80;2.90;;;;;;;11.51;67.58;100671.13;5036841;28;20051;-78
2022/02/17 11:03:35;;;;;;;13.40;2.38;;;;;;;11.35;68.72;100654.28;5065962;28;20025;-78
2022/02/17 11:06:01;;;;;;;20.67;2.42;;;;;;;11.72;68.30;100673.97;5061220;28;20426;-77
2022/02/17 11:08:27;;;;;;;17.15;2.53;;;;;;;11.80;68.33;100674.00;5066215;28;20508;-79
2022/02/17 11:10:53;;;;;;;12.93;2.45;;;;;;;11.95;66.71;100678.56;5059770;28;20117;-77
2022/02/17 11:13:20;;;;;;;12.60;2.83;;;;;;;11.84;66.32;100685.47;5054068;28;20028;-78
2022/02/17 11:15:48;;;;;;;13.23;2.20;;;;;;;11.98;65.76;100683.88;5043492;28;20040;-77
2022/02/17 11:18:19;;;;;;;15.52;2.90;;;;;;;11.74;67.36;100697.69;5058328;28;20524;-80
2022/02/17 11:20:46;;;;;;;16.02;2.80;;;;;;;11.62;66.93;100691.47;5073752;28;20388;-79
2022/02/17 11:23:14;;;;;;;11.13;3.13;;;;;;;11.38;67.53;100694.72;5045223;28;20481;-80
2022/02/17 11:25:41;;;;;;;13.77;2.58;;;;;;;11.81;66.70;100704.78;5040876;28;20024;-78